sensor_id;sensor_type;location;lat;lon;timestamp;P1;durP1;ratioP1;P2;durP2;ratioP2
60488;SDS011;46331;49.252;8.904;2023-03-19T00:00:23;10.43;;;4.60;;
60488;SDS011;46331;49.252;8.904;2023-03-19T00:01:04;9.38;;;4.50;;
60488;SDS011;46331;49.252;8.904;2023-03-19T00:01:46;12.57;;;5.27;;
60488;SDS011;46331;49.252;8.904;2023-03-19T00:02:27;10.45;;;4.80;;
60488;SDS011;46331;49.252;8.904;2023-03-19T00:03:08;11.48;;;4.88;;
60488;SDS011;46331;49.252;8.904;2023-03-19T00:03:48;10.37;;;4.80;;
60488;SDS011;46331;49.252;8.904;2023-03-19T00:04:29;8.77;;;4.13;;
60488;SDS011;46331;49.252;8.904;2023-03-19T00:05:10;11.05;;;4.93;;
60488;SDS011;46331;49.252;8.904;2023-03-19T00:05:51;8.93;;;4.80;;
60488;SDS011;46331;49.252;8.904;2023-03-19T00:06:32;15.60;;;6.47;;
60488;SDS011;46331;49.252;8.904;2023-03-19T00:07:13;61.67;;;23.70;;
60488;SDS011;46331;49.252;8.904;2023-03-19T00:07:55;45.83;;;18.73;;
60488;SDS011;46331;49.252;8.904;2023-03-19T00:08:36;23.80;;;9.18;;
60488;SDS011;46331;49.252;8.904;2023-03-19T00:09:17;14.90;;;6.57;;
60488;SDS011;46331;49.252;8.904;2023-03-19T00:09:58;12.68;;;6.20;;
60488;SDS011;46331;49.252;8.904;2023-03-19T00:10:39;13.97;;;7.50;;
60488;SDS011;46331;49.252;8.904;2023-03-19T00:11:19;31.45;;;11.27;;
60488;SDS011;46331;49.252;8.904;2023-03-19T00:12:00;33.13;;;12.90;;
60488;SDS011;46331;49.252;8.904;2023-03-19T00:12:40;24.13;;;9.37;;
60488;SDS011;46331;49.252;8.904;2023-03-19T00:13:21;24.07;;;8.57;;
60488;SDS011;46331;49.252;8.904;2023-03-19T00:14:02;19.43;;;8.57;;
60488;SDS011;46331;49.252;8.904;2023-03-19T00:14:43;23.33;;;7.90;;
60488;SDS011;46331;49.252;8.904;2023-03-19T00:15:23;22.90;;;8.73;;
60488;SDS011;46331;49.252;8.904;2023-03-19T00:16:04;20.58;;;7.88;;
60488;SDS011;46331;49.252;8.904;2023-03-19T00:16:46;21.65;;;8.32;;
60488;SDS011;46331;49.252;8.904;2023-03-19T00:17:26;16.47;;;6.40;;
60488;SDS011;46331;49.252;8.904;2023-03-19T00:18:07;15.15;;;7.35;;
60488;SDS011;46331;49.252;8.904;2023-03-19T00:18:48;14.67;;;6.53;;
60488;SDS011;46331;49.252;8.904;2023-03-19T00:19:28;17.30;;;6.60;;
60488;SDS011;46331;49.252;8.904;2023-03-19T00:20:10;15.98;;;6.68;;
60488;SDS011;46331;49.252;8.904;2023-03-19T00:20:52;16.10;;;6.90;;
60488;SDS011;46331;49.252;8.904;2023-03-19T00:21:32;19.50;;;7.30;;
60488;SDS011;46331;49.252;8.904;2023-03-19T00:22:13;13.85;;;7.00;;
60488;SDS011;46331;49.252;8.904;2023-03-19T00:22:53;15.23;;;6.87;;
60488;SDS011;46331;49.252;8.904;2023-03-19T00:23:34;16.15;;;7.80;;
60488;SDS011;46331;49.252;8.904;2023-03-19T00:24:16;15.70;;;6.60;;
60488;SDS011;46331;49.252;8.904;2023-03-19T00:24:56;17.15;;;7.22;;
60488;SDS011;46331;49.252;8.904;2023-03-19T00:25:37;20.10;;;7.85;;
60488;SDS011;46331;49.252;8.904;2023-03-19T00:26:18;16.87;;;6.83;;
60488;SDS011;46331;49.252;8.904;2023-03-19T00:26:58;16.15;;;6.53;;
60488;SDS011;46331;49.252;8.904;2023-03-19T00:27:40;15.65;;;6.97;;
60488;SDS011;46331;49.252;8.904;2023-03-19T00:28:21;17.35;;;6.63;;
60488;SDS011;46331;49.252;8.904;2023-03-19T00:29:02;14.97;;;6.77;;
60488;SDS011;46331;49.252;8.904;2023-03-19T00:29:43;15.80;;;6.68;;
60488;SDS011;46331;49.252;8.904;2023-03-19T00:30:24;16.45;;;6.35;;
60488;SDS011;46331;49.252;8.904;2023-03-19T00:31:08;17.43;;;7.07;;
60488;SDS011;46331;49.252;8.904;2023-03-19T00:31:50;16.35;;;7.10;;
60488;SDS011;46331;49.252;8.904;2023-03-19T00:32:31;16.83;;;6.60;;
60488;SDS011;46331;49.252;8.904;2023-03-19T00:33:13;15.27;;;6.85;;
60488;SDS011;46331;49.252;8.904;2023-03-19T00:33:55;15.43;;;7.00;;
60488;SDS011;46331;49.252;8.904;2023-03-19T00:34:39;14.18;;;6.28;;
60488;SDS011;46331;49.252;8.904;2023-03-19T00:35:20;15.05;;;6.97;;
60488;SDS011;46331;49.252;8.904;2023-03-19T00:36:01;14.57;;;6.50;;
60488;SDS011;46331;49.252;8.904;2023-03-19T00:36:41;17.60;;;7.00;;
60488;SDS011;46331;49.252;8.904;2023-03-19T00:37:22;14.97;;;7.07;;
60488;SDS011;46331;49.252;8.904;2023-03-19T00:38:03;17.73;;;7.57;;
60488;SDS011;46331;49.252;8.904;2023-03-19T00:38:45;16.88;;;6.70;;
60488;SDS011;46331;49.252;8.904;2023-03-19T00:39:26;15.73;;;6.57;;
60488;SDS011;46331;49.252;8.904;2023-03-19T00:40:07;14.47;;;6.80;;
60488;SDS011;46331;49.252;8.904;2023-03-19T00:40:49;19.13;;;6.93;;
60488;SDS011;46331;49.252;8.904;2023-03-19T00:41:30;15.10;;;6.57;;
60488;SDS011;46331;49.252;8.904;2023-03-19T00:42:11;14.82;;;7.10;;
60488;SDS011;46331;49.252;8.904;2023-03-19T00:42:52;17.57;;;7.20;;
60488;SDS011;46331;49.252;8.904;2023-03-19T00:43:33;16.55;;;6.68;;
60488;SDS011;46331;49.252;8.904;2023-03-19T00:44:13;15.88;;;7.13;;
60488;SDS011;46331;49.252;8.904;2023-03-19T00:44:54;16.47;;;6.57;;
60488;SDS011;46331;49.252;8.904;2023-03-19T00:45:34;14.48;;;6.65;;
60488;SDS011;46331;49.252;8.904;2023-03-19T00:46:15;14.47;;;6.57;;
60488;SDS011;46331;49.252;8.904;2023-03-19T00:46:57;14.15;;;6.30;;
60488;SDS011;46331;49.252;8.904;2023-03-19T00:47:38;13.93;;;6.47;;
60488;SDS011;46331;49.252;8.904;2023-03-19T00:48:18;15.77;;;6.67;;
60488;SDS011;46331;49.252;8.904;2023-03-19T00:49:00;15.05;;;6.93;;
60488;SDS011;46331;49.252;8.904;2023-03-19T00:49:41;16.93;;;7.63;;
60488;SDS011;46331;49.252;8.904;2023-03-19T00:50:22;16.60;;;7.03;;
60488;SDS011;46331;49.252;8.904;2023-03-19T00:51:05;16.70;;;7.65;;
60488;SDS011;46331;49.252;8.904;2023-03-19T00:51:47;17.10;;;8.27;;
60488;SDS011;46331;49.252;8.904;2023-03-19T00:52:27;26.27;;;10.80;;
60488;SDS011;46331;49.252;8.904;2023-03-19T00:53:08;23.95;;;9.48;;
60488;SDS011;46331;49.252;8.904;2023-03-19T00:53:49;28.10;;;9.50;;
60488;SDS011;46331;49.252;8.904;2023-03-19T00:54:31;22.45;;;8.88;;
60488;SDS011;46331;49.252;8.904;2023-03-19T00:55:12;21.67;;;9.10;;
60488;SDS011;46331;49.252;8.904;2023-03-19T00:55:52;23.50;;;8.77;;
60488;SDS011;46331;49.252;8.904;2023-03-19T00:56:33;21.53;;;8.33;;
60488;SDS011;46331;49.252;8.904;2023-03-19T00:57:14;17.42;;;7.18;;
60488;SDS011;46331;49.252;8.904;2023-03-19T00:57:54;18.55;;;7.40;;
60488;SDS011;46331;49.252;8.904;2023-03-19T00:58:35;19.77;;;7.43;;
60488;SDS011;46331;49.252;8.904;2023-03-19T00:59:17;18.42;;;7.63;;
60488;SDS011;46331;49.252;8.904;2023-03-19T00:59:58;18.07;;;7.13;;
60488;SDS011;46331;49.252;8.904;2023-03-19T01:00:40;17.07;;;7.13;;
60488;SDS011;46331;49.252;8.904;2023-03-19T01:01:22;17.58;;;7.75;;
60488;SDS011;46331;49.252;8.904;2023-03-19T01:02:04;20.13;;;7.90;;
60488;SDS011;46331;49.252;8.904;2023-03-19T01:02:45;17.50;;;7.47;;
60488;SDS011;46331;49.252;8.904;2023-03-19T01:03:25;19.63;;;7.32;;
60488;SDS011;46331;49.252;8.904;2023-03-19T01:04:06;18.40;;;7.60;;
60488;SDS011;46331;49.252;8.904;2023-03-19T01:04:47;23.30;;;7.72;;
60488;SDS011;46331;49.252;8.904;2023-03-19T01:05:28;19.00;;;7.60;;
60488;SDS011;46331;49.252;8.904;2023-03-19T01:06:09;15.93;;;7.25;;
60488;SDS011;46331;49.252;8.904;2023-03-19T01:06:51;20.92;;;7.97;;
60488;SDS011;46331;49.252;8.904;2023-03-19T01:07:32;19.05;;;7.78;;
60488;SDS011;46331;49.252;8.904;2023-03-19T01:08:12;15.60;;;6.67;;
60488;SDS011;46331;49.252;8.904;2023-03-19T01:08:53;14.73;;;6.55;;
60488;SDS011;46331;49.252;8.904;2023-03-19T01:09:34;15.68;;;6.22;;
60488;SDS011;46331;49.252;8.904;2023-03-19T01:10:18;14.80;;;6.33;;
60488;SDS011;46331;49.252;8.904;2023-03-19T01:11:05;13.40;;;6.00;;
60488;SDS011;46331;49.252;8.904;2023-03-19T01:11:47;12.80;;;5.95;;
60488;SDS011;46331;49.252;8.904;2023-03-19T01:12:28;12.98;;;5.50;;
60488;SDS011;46331;49.252;8.904;2023-03-19T01:13:08;12.63;;;5.60;;
60488;SDS011;46331;49.252;8.904;2023-03-19T01:13:50;13.10;;;5.30;;
60488;SDS011;46331;49.252;8.904;2023-03-19T01:14:30;14.27;;;5.28;;
60488;SDS011;46331;49.252;8.904;2023-03-19T01:15:11;12.00;;;5.45;;
60488;SDS011;46331;49.252;8.904;2023-03-19T01:15:52;12.43;;;5.47;;
60488;SDS011;46331;49.252;8.904;2023-03-19T01:16:34;12.80;;;5.40;;
60488;SDS011;46331;49.252;8.904;2023-03-19T01:17:15;14.25;;;5.53;;
60488;SDS011;46331;49.252;8.904;2023-03-19T01:17:55;13.45;;;6.03;;
60488;SDS011;46331;49.252;8.904;2023-03-19T01:18:36;14.00;;;5.40;;
60488;SDS011;46331;49.252;8.904;2023-03-19T01:19:17;14.77;;;5.70;;
60488;SDS011;46331;49.252;8.904;2023-03-19T01:19:58;12.23;;;5.47;;
60488;SDS011;46331;49.252;8.904;2023-03-19T01:20:39;13.43;;;6.33;;
60488;SDS011;46331;49.252;8.904;2023-03-19T01:21:21;13.07;;;5.50;;
60488;SDS011;46331;49.252;8.904;2023-03-19T01:22:02;10.38;;;5.40;;
60488;SDS011;46331;49.252;8.904;2023-03-19T01:22:44;11.23;;;5.43;;
60488;SDS011;46331;49.252;8.904;2023-03-19T01:23:25;14.55;;;6.00;;
60488;SDS011;46331;49.252;8.904;2023-03-19T01:24:07;12.38;;;5.65;;
60488;SDS011;46331;49.252;8.904;2023-03-19T01:24:47;14.07;;;5.37;;
60488;SDS011;46331;49.252;8.904;2023-03-19T01:25:28;12.73;;;5.40;;
60488;SDS011;46331;49.252;8.904;2023-03-19T01:26:16;10.55;;;4.43;;
60488;SDS011;46331;49.252;8.904;2023-03-19T01:26:57;11.88;;;4.90;;
60488;SDS011;46331;49.252;8.904;2023-03-19T01:27:44;13.48;;;5.15;;
60488;SDS011;46331;49.252;8.904;2023-03-19T01:28:27;11.77;;;5.47;;
60488;SDS011;46331;49.252;8.904;2023-03-19T01:29:08;15.53;;;7.63;;
60488;SDS011;46331;49.252;8.904;2023-03-19T01:29:49;13.95;;;6.63;;
60488;SDS011;46331;49.252;8.904;2023-03-19T01:30:39;16.50;;;6.43;;
60488;SDS011;46331;49.252;8.904;2023-03-19T01:31:46;12.45;;;5.88;;
60488;SDS011;46331;49.252;8.904;2023-03-19T01:32:54;13.02;;;5.70;;
60488;SDS011;46331;49.252;8.904;2023-03-19T01:33:57;16.25;;;5.78;;
60488;SDS011;46331;49.252;8.904;2023-03-19T01:34:59;11.52;;;5.50;;
60488;SDS011;46331;49.252;8.904;2023-03-19T01:35:39;10.80;;;4.80;;
60488;SDS011;46331;49.252;8.904;2023-03-19T01:36:20;13.13;;;5.28;;
60488;SDS011;46331;49.252;8.904;2023-03-19T01:37:14;12.35;;;5.25;;
60488;SDS011;46331;49.252;8.904;2023-03-19T01:37:56;10.98;;;5.15;;
60488;SDS011;46331;49.252;8.904;2023-03-19T01:38:37;11.87;;;5.30;;
60488;SDS011;46331;49.252;8.904;2023-03-19T01:39:22;12.80;;;5.60;;
60488;SDS011;46331;49.252;8.904;2023-03-19T01:40:03;11.65;;;5.70;;
60488;SDS011;46331;49.252;8.904;2023-03-19T01:40:46;12.60;;;5.28;;
60488;SDS011;46331;49.252;8.904;2023-03-19T01:41:27;15.00;;;5.82;;
60488;SDS011;46331;49.252;8.904;2023-03-19T01:42:13;12.57;;;5.68;;
60488;SDS011;46331;49.252;8.904;2023-03-19T01:43:23;12.60;;;5.72;;
60488;SDS011;46331;49.252;8.904;2023-03-19T01:44:22;12.98;;;5.97;;
60488;SDS011;46331;49.252;8.904;2023-03-19T01:45:32;12.20;;;5.57;;
60488;SDS011;46331;49.252;8.904;2023-03-19T01:46:36;14.73;;;5.30;;
60488;SDS011;46331;49.252;8.904;2023-03-19T01:47:37;13.82;;;6.32;;
60488;SDS011;46331;49.252;8.904;2023-03-19T01:48:42;11.45;;;5.18;;
60488;SDS011;46331;49.252;8.904;2023-03-19T01:49:29;10.20;;;4.93;;
60488;SDS011;46331;49.252;8.904;2023-03-19T01:50:31;12.52;;;5.18;;
60488;SDS011;46331;49.252;8.904;2023-03-19T01:51:38;11.93;;;4.60;;
60488;SDS011;46331;49.252;8.904;2023-03-19T01:52:44;11.30;;;4.65;;
60488;SDS011;46331;49.252;8.904;2023-03-19T01:53:36;13.05;;;5.20;;
60488;SDS011;46331;49.252;8.904;2023-03-19T01:54:30;11.43;;;4.88;;
60488;SDS011;46331;49.252;8.904;2023-03-19T01:55:29;11.95;;;4.68;;
60488;SDS011;46331;49.252;8.904;2023-03-19T01:56:42;11.50;;;4.87;;
60488;SDS011;46331;49.252;8.904;2023-03-19T01:57:47;13.15;;;5.78;;
60488;SDS011;46331;49.252;8.904;2023-03-19T01:58:46;13.95;;;5.90;;
60488;SDS011;46331;49.252;8.904;2023-03-19T01:59:49;12.50;;;5.30;;
60488;SDS011;46331;49.252;8.904;2023-03-19T02:00:52;13.95;;;6.00;;
60488;SDS011;46331;49.252;8.904;2023-03-19T02:01:35;13.48;;;5.68;;
60488;SDS011;46331;49.252;8.904;2023-03-19T02:02:26;13.10;;;5.50;;
60488;SDS011;46331;49.252;8.904;2023-03-19T02:03:09;13.18;;;5.43;;
60488;SDS011;46331;49.252;8.904;2023-03-19T02:04:09;12.32;;;5.90;;
60488;SDS011;46331;49.252;8.904;2023-03-19T02:04:51;10.73;;;5.43;;
60488;SDS011;46331;49.252;8.904;2023-03-19T02:05:36;13.30;;;5.30;;
60488;SDS011;46331;49.252;8.904;2023-03-19T02:06:22;14.45;;;5.50;;
60488;SDS011;46331;49.252;8.904;2023-03-19T02:07:03;17.25;;;6.22;;
60488;SDS011;46331;49.252;8.904;2023-03-19T02:07:45;13.88;;;5.28;;
60488;SDS011;46331;49.252;8.904;2023-03-19T02:08:26;12.00;;;6.00;;
60488;SDS011;46331;49.252;8.904;2023-03-19T02:09:08;12.32;;;6.13;;
60488;SDS011;46331;49.252;8.904;2023-03-19T02:09:49;14.70;;;5.73;;
60488;SDS011;46331;49.252;8.904;2023-03-19T02:10:29;12.32;;;6.00;;
60488;SDS011;46331;49.252;8.904;2023-03-19T02:11:11;14.40;;;6.22;;
60488;SDS011;46331;49.252;8.904;2023-03-19T02:11:52;12.35;;;5.50;;
60488;SDS011;46331;49.252;8.904;2023-03-19T02:12:34;12.55;;;5.80;;
60488;SDS011;46331;49.252;8.904;2023-03-19T02:13:15;12.98;;;5.43;;
60488;SDS011;46331;49.252;8.904;2023-03-19T02:13:55;13.13;;;6.00;;
60488;SDS011;46331;49.252;8.904;2023-03-19T02:14:36;12.35;;;5.88;;
60488;SDS011;46331;49.252;8.904;2023-03-19T02:15:17;11.80;;;5.90;;
60488;SDS011;46331;49.252;8.904;2023-03-19T02:15:58;12.35;;;5.55;;
60488;SDS011;46331;49.252;8.904;2023-03-19T02:16:38;14.48;;;5.63;;
60488;SDS011;46331;49.252;8.904;2023-03-19T02:17:20;12.65;;;5.80;;
60488;SDS011;46331;49.252;8.904;2023-03-19T02:18:01;13.70;;;5.88;;
60488;SDS011;46331;49.252;8.904;2023-03-19T02:18:42;14.60;;;5.87;;
60488;SDS011;46331;49.252;8.904;2023-03-19T02:19:26;14.10;;;5.47;;
60488;SDS011;46331;49.252;8.904;2023-03-19T02:20:18;12.38;;;5.93;;
60488;SDS011;46331;49.252;8.904;2023-03-19T02:21:14;15.20;;;6.07;;
60488;SDS011;46331;49.252;8.904;2023-03-19T02:21:58;13.55;;;5.78;;
60488;SDS011;46331;49.252;8.904;2023-03-19T02:24:13;12.25;;;5.22;;
60488;SDS011;46331;49.252;8.904;2023-03-19T02:25:13;16.27;;;5.53;;
60488;SDS011;46331;49.252;8.904;2023-03-19T02:26:46;13.55;;;6.15;;
60488;SDS011;46331;49.252;8.904;2023-03-19T02:27:28;12.65;;;5.55;;
60488;SDS011;46331;49.252;8.904;2023-03-19T02:28:09;15.05;;;6.07;;
60488;SDS011;46331;49.252;8.904;2023-03-19T02:28:51;13.07;;;5.90;;
60488;SDS011;46331;49.252;8.904;2023-03-19T02:29:40;14.00;;;6.30;;
60488;SDS011;46331;49.252;8.904;2023-03-19T02:30:26;14.63;;;6.27;;
60488;SDS011;46331;49.252;8.904;2023-03-19T02:31:11;13.98;;;6.18;;
60488;SDS011;46331;49.252;8.904;2023-03-19T02:31:52;13.40;;;6.22;;
60488;SDS011;46331;49.252;8.904;2023-03-19T02:32:33;13.35;;;6.03;;
60488;SDS011;46331;49.252;8.904;2023-03-19T02:33:15;13.60;;;6.13;;
60488;SDS011;46331;49.252;8.904;2023-03-19T02:34:01;13.57;;;5.95;;
60488;SDS011;46331;49.252;8.904;2023-03-19T02:34:45;16.02;;;5.85;;
60488;SDS011;46331;49.252;8.904;2023-03-19T02:35:27;13.45;;;5.65;;
60488;SDS011;46331;49.252;8.904;2023-03-19T02:36:13;13.77;;;6.13;;
60488;SDS011;46331;49.252;8.904;2023-03-19T02:36:59;13.93;;;6.22;;
60488;SDS011;46331;49.252;8.904;2023-03-19T02:37:47;12.93;;;5.80;;
60488;SDS011;46331;49.252;8.904;2023-03-19T02:38:27;13.33;;;5.67;;
60488;SDS011;46331;49.252;8.904;2023-03-19T02:39:19;14.25;;;6.65;;
60488;SDS011;46331;49.252;8.904;2023-03-19T02:40:10;11.70;;;5.88;;
60488;SDS011;46331;49.252;8.904;2023-03-19T02:40:59;11.82;;;5.55;;
60488;SDS011;46331;49.252;8.904;2023-03-19T02:41:43;11.52;;;5.53;;
60488;SDS011;46331;49.252;8.904;2023-03-19T02:42:26;12.60;;;6.22;;
60488;SDS011;46331;49.252;8.904;2023-03-19T02:43:09;12.05;;;5.93;;
60488;SDS011;46331;49.252;8.904;2023-03-19T02:43:50;12.93;;;6.20;;
60488;SDS011;46331;49.252;8.904;2023-03-19T02:44:31;12.48;;;6.20;;
60488;SDS011;46331;49.252;8.904;2023-03-19T02:45:12;13.13;;;6.37;;
60488;SDS011;46331;49.252;8.904;2023-03-19T02:45:53;12.93;;;5.73;;
60488;SDS011;46331;49.252;8.904;2023-03-19T02:46:35;13.57;;;6.18;;
60488;SDS011;46331;49.252;8.904;2023-03-19T02:47:15;12.50;;;5.50;;
60488;SDS011;46331;49.252;8.904;2023-03-19T02:47:57;12.35;;;5.68;;
60488;SDS011;46331;49.252;8.904;2023-03-19T02:48:38;12.75;;;5.40;;
60488;SDS011;46331;49.252;8.904;2023-03-19T02:49:20;14.67;;;5.67;;
60488;SDS011;46331;49.252;8.904;2023-03-19T02:50:00;12.90;;;6.00;;
60488;SDS011;46331;49.252;8.904;2023-03-19T02:50:41;11.33;;;5.30;;
60488;SDS011;46331;49.252;8.904;2023-03-19T02:51:22;14.25;;;6.00;;
60488;SDS011;46331;49.252;8.904;2023-03-19T02:52:02;12.53;;;5.33;;
60488;SDS011;46331;49.252;8.904;2023-03-19T02:52:43;12.23;;;5.75;;
60488;SDS011;46331;49.252;8.904;2023-03-19T02:53:24;11.50;;;5.20;;
60488;SDS011;46331;49.252;8.904;2023-03-19T02:54:05;13.17;;;5.67;;
60488;SDS011;46331;49.252;8.904;2023-03-19T02:54:46;11.93;;;5.57;;
60488;SDS011;46331;49.252;8.904;2023-03-19T02:55:27;13.05;;;5.53;;
60488;SDS011;46331;49.252;8.904;2023-03-19T02:56:08;11.60;;;5.47;;
60488;SDS011;46331;49.252;8.904;2023-03-19T02:56:48;11.63;;;5.30;;
60488;SDS011;46331;49.252;8.904;2023-03-19T02:57:31;12.57;;;5.80;;
60488;SDS011;46331;49.252;8.904;2023-03-19T02:58:12;13.83;;;6.20;;
60488;SDS011;46331;49.252;8.904;2023-03-19T02:58:52;12.20;;;5.90;;
60488;SDS011;46331;49.252;8.904;2023-03-19T02:59:33;13.43;;;6.33;;
60488;SDS011;46331;49.252;8.904;2023-03-19T03:00:14;14.23;;;5.65;;
60488;SDS011;46331;49.252;8.904;2023-03-19T03:00:58;16.27;;;5.90;;
60488;SDS011;46331;49.252;8.904;2023-03-19T03:01:38;11.15;;;5.63;;
60488;SDS011;46331;49.252;8.904;2023-03-19T03:02:19;12.10;;;6.17;;
60488;SDS011;46331;49.252;8.904;2023-03-19T03:03:01;14.00;;;5.65;;
60488;SDS011;46331;49.252;8.904;2023-03-19T03:03:43;11.00;;;5.68;;
60488;SDS011;46331;49.252;8.904;2023-03-19T03:04:24;16.50;;;5.90;;
60488;SDS011;46331;49.252;8.904;2023-03-19T03:05:06;12.27;;;5.30;;
60488;SDS011;46331;49.252;8.904;2023-03-19T03:05:48;11.77;;;5.83;;
60488;SDS011;46331;49.252;8.904;2023-03-19T03:06:28;11.25;;;5.15;;
60488;SDS011;46331;49.252;8.904;2023-03-19T03:07:09;12.70;;;5.70;;
60488;SDS011;46331;49.252;8.904;2023-03-19T03:07:50;12.50;;;5.00;;
60488;SDS011;46331;49.252;8.904;2023-03-19T03:08:31;13.68;;;5.80;;
60488;SDS011;46331;49.252;8.904;2023-03-19T03:09:12;10.63;;;5.13;;
60488;SDS011;46331;49.252;8.904;2023-03-19T03:09:53;11.23;;;4.88;;
60488;SDS011;46331;49.252;8.904;2023-03-19T03:10:34;11.97;;;5.77;;
60488;SDS011;46331;49.252;8.904;2023-03-19T03:11:14;11.65;;;5.35;;
60488;SDS011;46331;49.252;8.904;2023-03-19T03:11:55;11.00;;;5.00;;
60488;SDS011;46331;49.252;8.904;2023-03-19T03:12:36;13.10;;;5.07;;
60488;SDS011;46331;49.252;8.904;2023-03-19T03:13:17;12.73;;;4.93;;
60488;SDS011;46331;49.252;8.904;2023-03-19T03:13:58;12.33;;;5.00;;
60488;SDS011;46331;49.252;8.904;2023-03-19T03:14:40;10.15;;;4.43;;
60488;SDS011;46331;49.252;8.904;2023-03-19T03:15:21;10.77;;;4.80;;
60488;SDS011;46331;49.252;8.904;2023-03-19T03:16:01;10.37;;;4.80;;
60488;SDS011;46331;49.252;8.904;2023-03-19T03:16:42;11.30;;;5.00;;
60488;SDS011;46331;49.252;8.904;2023-03-19T03:17:22;9.88;;;4.20;;
60488;SDS011;46331;49.252;8.904;2023-03-19T03:18:03;13.50;;;4.60;;
60488;SDS011;46331;49.252;8.904;2023-03-19T03:18:44;11.90;;;4.68;;
60488;SDS011;46331;49.252;8.904;2023-03-19T03:19:24;12.27;;;4.77;;
60488;SDS011;46331;49.252;8.904;2023-03-19T03:20:08;12.43;;;4.43;;
60488;SDS011;46331;49.252;8.904;2023-03-19T03:20:50;8.82;;;4.53;;
60488;SDS011;46331;49.252;8.904;2023-03-19T03:21:31;10.90;;;4.45;;
60488;SDS011;46331;49.252;8.904;2023-03-19T03:22:12;10.20;;;4.47;;
60488;SDS011;46331;49.252;8.904;2023-03-19T03:22:53;8.77;;;3.95;;
60488;SDS011;46331;49.252;8.904;2023-03-19T03:23:34;10.77;;;4.07;;
60488;SDS011;46331;49.252;8.904;2023-03-19T03:24:15;8.95;;;4.50;;
60488;SDS011;46331;49.252;8.904;2023-03-19T03:24:56;8.77;;;4.00;;
60488;SDS011;46331;49.252;8.904;2023-03-19T03:25:37;8.10;;;4.17;;
60488;SDS011;46331;49.252;8.904;2023-03-19T03:26:18;9.95;;;4.22;;
60488;SDS011;46331;49.252;8.904;2023-03-19T03:26:58;10.63;;;4.33;;
60488;SDS011;46331;49.252;8.904;2023-03-19T03:27:39;9.88;;;3.90;;
60488;SDS011;46331;49.252;8.904;2023-03-19T03:28:20;7.68;;;3.60;;
60488;SDS011;46331;49.252;8.904;2023-03-19T03:29:01;9.00;;;4.23;;
60488;SDS011;46331;49.252;8.904;2023-03-19T03:29:41;8.85;;;4.10;;
60488;SDS011;46331;49.252;8.904;2023-03-19T03:30:22;11.03;;;4.23;;
60488;SDS011;46331;49.252;8.904;2023-03-19T03:31:02;9.85;;;4.00;;
60488;SDS011;46331;49.252;8.904;2023-03-19T03:31:43;11.53;;;3.90;;
60488;SDS011;46331;49.252;8.904;2023-03-19T03:32:24;9.50;;;4.00;;
60488;SDS011;46331;49.252;8.904;2023-03-19T03:33:05;9.20;;;3.53;;
60488;SDS011;46331;49.252;8.904;2023-03-19T03:33:46;9.00;;;3.78;;
60488;SDS011;46331;49.252;8.904;2023-03-19T03:34:28;11.73;;;3.63;;
60488;SDS011;46331;49.252;8.904;2023-03-19T03:35:10;10.27;;;5.33;;
60488;SDS011;46331;49.252;8.904;2023-03-19T03:35:51;8.35;;;3.88;;
60488;SDS011;46331;49.252;8.904;2023-03-19T03:36:31;9.45;;;4.07;;
60488;SDS011;46331;49.252;8.904;2023-03-19T03:37:13;9.55;;;3.50;;
60488;SDS011;46331;49.252;8.904;2023-03-19T03:37:53;10.23;;;3.63;;
60488;SDS011;46331;49.252;8.904;2023-03-19T03:38:34;7.75;;;3.63;;
60488;SDS011;46331;49.252;8.904;2023-03-19T03:39:15;9.33;;;3.70;;
60488;SDS011;46331;49.252;8.904;2023-03-19T03:39:55;8.70;;;3.85;;
60488;SDS011;46331;49.252;8.904;2023-03-19T03:40:37;8.90;;;3.63;;
60488;SDS011;46331;49.252;8.904;2023-03-19T03:41:17;8.87;;;3.67;;
60488;SDS011;46331;49.252;8.904;2023-03-19T03:41:58;8.75;;;3.42;;
60488;SDS011;46331;49.252;8.904;2023-03-19T03:42:40;10.50;;;4.32;;
60488;SDS011;46331;49.252;8.904;2023-03-19T03:43:22;9.85;;;3.85;;
60488;SDS011;46331;49.252;8.904;2023-03-19T03:44:03;9.52;;;4.18;;
60488;SDS011;46331;49.252;8.904;2023-03-19T03:44:47;9.55;;;3.63;;
60488;SDS011;46331;49.252;8.904;2023-03-19T03:45:28;7.30;;;3.53;;
60488;SDS011;46331;49.252;8.904;2023-03-19T03:46:08;9.17;;;4.20;;
60488;SDS011;46331;49.252;8.904;2023-03-19T03:46:49;8.88;;;3.20;;
60488;SDS011;46331;49.252;8.904;2023-03-19T03:47:29;10.10;;;3.60;;
60488;SDS011;46331;49.252;8.904;2023-03-19T03:48:11;8.85;;;3.17;;
60488;SDS011;46331;49.252;8.904;2023-03-19T03:48:52;8.00;;;3.50;;
60488;SDS011;46331;49.252;8.904;2023-03-19T03:49:33;8.73;;;4.00;;
60488;SDS011;46331;49.252;8.904;2023-03-19T03:50:14;7.97;;;3.70;;
60488;SDS011;46331;49.252;8.904;2023-03-19T03:50:55;7.80;;;3.72;;
60488;SDS011;46331;49.252;8.904;2023-03-19T03:51:40;9.05;;;3.67;;
60488;SDS011;46331;49.252;8.904;2023-03-19T03:52:21;8.73;;;3.50;;
60488;SDS011;46331;49.252;8.904;2023-03-19T03:53:02;8.93;;;3.50;;
60488;SDS011;46331;49.252;8.904;2023-03-19T03:53:42;8.75;;;3.40;;
60488;SDS011;46331;49.252;8.904;2023-03-19T03:54:23;7.25;;;3.47;;
60488;SDS011;46331;49.252;8.904;2023-03-19T03:55:04;9.30;;;3.53;;
60488;SDS011;46331;49.252;8.904;2023-03-19T03:55:45;7.68;;;3.35;;
60488;SDS011;46331;49.252;8.904;2023-03-19T03:56:26;9.48;;;4.00;;
60488;SDS011;46331;49.252;8.904;2023-03-19T03:57:07;8.65;;;3.50;;
60488;SDS011;46331;49.252;8.904;2023-03-19T03:57:48;9.93;;;3.70;;
60488;SDS011;46331;49.252;8.904;2023-03-19T03:58:28;9.77;;;3.92;;
60488;SDS011;46331;49.252;8.904;2023-03-19T03:59:09;11.17;;;3.60;;
60488;SDS011;46331;49.252;8.904;2023-03-19T03:59:50;10.17;;;3.60;;
60488;SDS011;46331;49.252;8.904;2023-03-19T04:00:30;7.35;;;3.22;;
60488;SDS011;46331;49.252;8.904;2023-03-19T04:01:14;7.10;;;3.10;;
60488;SDS011;46331;49.252;8.904;2023-03-19T04:01:57;10.25;;;3.60;;
60488;SDS011;46331;49.252;8.904;2023-03-19T04:02:38;9.20;;;3.28;;
60488;SDS011;46331;49.252;8.904;2023-03-19T04:03:19;7.47;;;3.10;;
60488;SDS011;46331;49.252;8.904;2023-03-19T04:03:59;7.23;;;3.00;;
60488;SDS011;46331;49.252;8.904;2023-03-19T04:04:40;8.10;;;3.17;;
60488;SDS011;46331;49.252;8.904;2023-03-19T04:05:21;8.20;;;2.97;;
60488;SDS011;46331;49.252;8.904;2023-03-19T04:06:02;7.35;;;3.40;;
60488;SDS011;46331;49.252;8.904;2023-03-19T04:06:43;7.47;;;3.50;;
60488;SDS011;46331;49.252;8.904;2023-03-19T04:07:45;9.32;;;4.07;;
60488;SDS011;46331;49.252;8.904;2023-03-19T04:08:26;7.72;;;4.07;;
60488;SDS011;46331;49.252;8.904;2023-03-19T04:09:06;9.67;;;4.30;;
60488;SDS011;46331;49.252;8.904;2023-03-19T04:09:48;8.73;;;3.80;;
60488;SDS011;46331;49.252;8.904;2023-03-19T04:10:30;8.80;;;3.50;;
60488;SDS011;46331;49.252;8.904;2023-03-19T04:11:11;7.13;;;3.47;;
60488;SDS011;46331;49.252;8.904;2023-03-19T04:11:52;6.23;;;2.83;;
60488;SDS011;46331;49.252;8.904;2023-03-19T04:12:32;7.93;;;3.80;;
60488;SDS011;46331;49.252;8.904;2023-03-19T04:13:14;9.15;;;4.32;;
60488;SDS011;46331;49.252;8.904;2023-03-19T04:13:55;8.73;;;4.60;;
60488;SDS011;46331;49.252;8.904;2023-03-19T04:14:37;8.43;;;3.95;;
60488;SDS011;46331;49.252;8.904;2023-03-19T04:15:18;6.55;;;3.30;;
60488;SDS011;46331;49.252;8.904;2023-03-19T04:16:02;5.93;;;3.30;;
60488;SDS011;46331;49.252;8.904;2023-03-19T04:16:44;6.05;;;2.67;;
60488;SDS011;46331;49.252;8.904;2023-03-19T04:17:25;7.00;;;3.20;;
60488;SDS011;46331;49.252;8.904;2023-03-19T04:18:05;6.27;;;2.83;;
60488;SDS011;46331;49.252;8.904;2023-03-19T04:18:46;8.07;;;2.97;;
60488;SDS011;46331;49.252;8.904;2023-03-19T04:19:26;8.63;;;3.07;;